»·PEaware :: SKW1014 KSAN-KFAT

SKW1014 :: KSAN-KFAT

FLIGHT INFORMATION

Flight Status: Arrived
Operator:
SkyWest Airlines
More flights by this operator :: More flights under this callsign
Pilot: Jim M. (18055)
Aircraft: BRITISH AERO RJ-70
(RJ70)
More flights by this aircraft type
Origin: KSAN San Diego Intl-Lindbergh
United States
Destination: KFAT Fresno Yosemite Intl
United States
More flights between these airports :: More routes between these airports
Route: +PADRZ2 EHF TTE ALTTA8
File this flight plan on PilotEdge
Remarks:
Altitude:
(Current/Filed)
28,000ft
Speed:
(Current/Filed)
350kts
Departed: 01-Dec-18 09:54 AM
Arrived: 01-Dec-18 10:54 AM
Distance/Time
Traveled:
272nm/0:59
Distance/Time
To Go:
Arrived

Flight Plot

Page will automatically refresh every two minutes.

Flight plan parsing failed; only flown route is shown


Map Options




Map Legend


Flown Route
Filed Route
Departure Airport
Arrival Airport
Navaid (VOR, NDB)
Fix

Horizontal Profiles

Position Reports

Time Latitude Longitude Heading Altitude Ground
Speed
01-Dec-18 09:21 32.731948 -117.190016 111 23ft 0kts
01-Dec-18 09:22 32.731948 -117.190016 111 23ft 0kts
01-Dec-18 09:23 32.731948 -117.190016 111 23ft 0kts
01-Dec-18 09:24 32.731948 -117.190016 111 23ft 0kts
01-Dec-18 09:25 32.731948 -117.190016 111 23ft 0kts
01-Dec-18 09:26 32.731948 -117.190016 111 23ft 0kts
01-Dec-18 09:27 32.731948 -117.190016 111 23ft 0kts
01-Dec-18 09:28 32.731948 -117.190016 111 23ft 0kts
01-Dec-18 09:29 32.731948 -117.190016 111 23ft 0kts
01-Dec-18 09:30 32.731948 -117.190016 111 23ft 0kts
01-Dec-18 09:31 32.731948 -117.190016 111 23ft 0kts
01-Dec-18 09:32 32.731948 -117.190016 111 23ft 0kts
01-Dec-18 09:33 32.731948 -117.190016 111 23ft 0kts
01-Dec-18 09:34 32.731948 -117.190016 111 23ft 0kts
01-Dec-18 09:35 32.731948 -117.190016 111 23ft 0kts
01-Dec-18 09:36 32.731948 -117.190016 111 23ft 0kts
01-Dec-18 09:37 32.731948 -117.190016 111 23ft 0kts
01-Dec-18 09:38 32.731948 -117.190016 111 23ft 0kts
01-Dec-18 09:39 32.731948 -117.190016 111 23ft 0kts
01-Dec-18 09:40 32.731948 -117.190016 111 23ft 0kts
01-Dec-18 09:41 32.731948 -117.190016 111 23ft 0kts
01-Dec-18 09:42 32.731948 -117.190016 111 23ft 0kts
01-Dec-18 09:43 32.731948 -117.190016 111 23ft 0kts
01-Dec-18 09:44 32.732147 -117.190475 131 23ft 2kts
01-Dec-18 09:45 32.732398 -117.190535 201 23ft 0kts
01-Dec-18 09:46 32.732398 -117.190535 201 23ft 0kts
01-Dec-18 09:47 32.732398 -117.190536 201 23ft 0kts
01-Dec-18 09:48 32.732395 -117.190537 201 23ft 0kts
01-Dec-18 09:49 32.732392 -117.190538 201 23ft 0kts
01-Dec-18 09:50 32.732389 -117.190540 201 23ft 0kts
01-Dec-18 09:51 32.731800 -117.190914 100 23ft 5kts
01-Dec-18 09:52 32.732461 -117.190513 34 23ft 5kts
01-Dec-18 09:53 32.732076 -117.187777 108 23ft 12kts
01-Dec-18 09:54 32.730892 -117.182836 105 23ft 17kts
01-Dec-18 09:55 32.729508 -117.177165 105 23ft 13kts
01-Dec-18 09:56 32.729486 -117.176835 71 23ft 0kts
01-Dec-18 09:57 32.730639 -117.177563 285 23ft 45kts
01-Dec-18 09:58 32.743680 -117.227063 299 1770ft 215kts
01-Dec-18 09:59 32.779243 -117.286249 304 5751ft 244kts
01-Dec-18 10:00 32.823148 -117.352330 307 9166ft 259kts
01-Dec-18 10:01 32.866479 -117.420008 306 12509ft 255kts
01-Dec-18 10:02 32.903075 -117.475867 305 14879ft 258kts
01-Dec-18 10:03 32.955115 -117.554835 305 17856ft 261kts
01-Dec-18 10:04 33.000439 -117.624484 304 19869ft 273kts
01-Dec-18 10:05 33.041245 -117.688059 304 20545ft 306kts
01-Dec-18 10:06 33.112559 -117.772147 314 22419ft 313kts
01-Dec-18 10:07 33.169345 -117.827777 315 23519ft 319kts
01-Dec-18 10:08 33.250216 -117.906645 315 24931ft 324kts
01-Dec-18 10:09 33.308962 -117.963520 315 25892ft 327kts
01-Dec-18 10:10 33.391711 -118.044294 315 27130ft 331kts
01-Dec-18 10:11 33.451249 -118.102813 315 27859ft 334kts
01-Dec-18 10:12 33.535401 -118.185774 315 28094ft 334kts
01-Dec-18 10:13 33.599275 -118.238856 325 28097ft 340kts
01-Dec-18 10:14 33.701827 -118.293855 328 28098ft 351kts
01-Dec-18 10:15 33.776858 -118.333145 329 28100ft 354kts
01-Dec-18 10:16 33.867938 -118.379004 329 28094ft 355kts
01-Dec-18 10:17 33.959351 -118.424721 329 28090ft 356kts
01-Dec-18 10:18 34.056522 -118.455773 342 28091ft 369kts
01-Dec-18 10:19 34.159190 -118.469003 344 28091ft 370kts
01-Dec-18 10:20 34.261342 -118.483158 342 28095ft 368kts
01-Dec-18 10:21 34.363082 -118.498461 342 28109ft 368kts
01-Dec-18 10:22 34.464600 -118.513822 342 28109ft 367kts
01-Dec-18 10:23 34.565833 -118.529610 342 28102ft 366kts
01-Dec-18 10:24 34.667162 -118.545310 342 28100ft 366kts
01-Dec-18 10:25 34.767972 -118.561071 342 28100ft 365kts
01-Dec-18 10:26 34.868756 -118.576753 341 28102ft 364kts
01-Dec-18 10:27 34.968957 -118.592032 341 28106ft 363kts
01-Dec-18 10:28 35.054856 -118.639874 315 28112ft 333kts
01-Dec-18 10:29 35.123700 -118.715016 312 27803ft 332kts
01-Dec-18 10:30 35.193272 -118.788455 314 26811ft 329kts
01-Dec-18 10:31 35.263366 -118.859343 314 25809ft 324kts
01-Dec-18 10:32 35.332097 -118.929215 314 24810ft 320kts
01-Dec-18 10:33 35.400499 -118.998045 314 23808ft 316kts
01-Dec-18 10:34 35.468870 -119.064467 326 22802ft 322kts
01-Dec-18 10:35 35.564437 -119.066367 355 21798ft 359kts
01-Dec-18 10:36 35.662278 -119.044120 356 20425ft 354kts
01-Dec-18 10:37 35.756660 -119.025093 354 19022ft 335kts
01-Dec-18 10:38 35.848074 -119.008817 354 17616ft 327kts
01-Dec-18 10:39 35.933886 -119.012275 333 16128ft 295kts
01-Dec-18 10:40 36.008708 -119.048559 329 14043ft 287kts
01-Dec-18 10:41 36.081264 -119.088812 331 10694ft 289kts
01-Dec-18 10:42 36.149605 -119.126099 334 10026ft 257kts
01-Dec-18 10:43 36.217398 -119.160250 335 10016ft 265kts
01-Dec-18 10:44 36.286615 -119.194138 335 9637ft 267kts
01-Dec-18 10:45 36.355564 -119.228402 336 7672ft 263kts
01-Dec-18 10:46 36.422622 -119.262175 336 5563ft 257kts
01-Dec-18 10:47 36.485447 -119.293121 337 4453ft 224kts
01-Dec-18 10:48 36.538081 -119.323616 317 3964ft 200kts
01-Dec-18 10:49 36.573601 -119.370908 312 3421ft 182kts
01-Dec-18 10:50 36.605775 -119.417729 306 2807ft 173kts
01-Dec-18 10:51 36.634867 -119.467558 303 2802ft 182kts
01-Dec-18 10:52 36.662582 -119.517159 303 2794ft 168kts
01-Dec-18 10:53 36.690231 -119.565991 304 2230ft 174kts
01-Dec-18 10:54 36.716448 -119.611671 303 1792ft 145kts
01-Dec-18 10:55 36.740302 -119.653535 303 1346ft 147kts
01-Dec-18 10:56 36.761451 -119.690699 302 626ft 123kts
01-Dec-18 10:57 36.775780 -119.716339 276 344ft 12kts
01-Dec-18 10:58 36.775868 -119.718187 266 344ft 9kts
01-Dec-18 10:59 36.773952 -119.719166 136 344ft 7kts
01-Dec-18 11:00 36.772128 -119.716064 160 344ft 10kts
01-Dec-18 11:01 36.769972 -119.716617 217 344ft 4kts
01-Dec-18 11:02 36.770020 -119.717405 337 344ft 2kts
01-Dec-18 11:03 36.770164 -119.717489 334 344ft 0kts
01-Dec-18 11:04 36.770164 -119.717489 334 344ft 0kts
01-Dec-18 11:05 36.770164 -119.717489 334 344ft 0kts
01-Dec-18 11:06 36.770164 -119.717489 334 344ft 0kts
01-Dec-18 11:07 36.770164 -119.717489 334 344ft 0kts

Navigation Log

Ident Type
Flight plan parsing failed, navigation log unavailable